sensor_id;sensor_type;location;lat;lon;timestamp;pressure;altitude;pressure_sealevel;temperature;humidity
62978;BME280;49073;42.352;23.808;2023-01-31T00:00:03;94181.19;;;0.24;73.66
62978;BME280;49073;42.352;23.808;2023-01-31T00:03:06;94182.41;;;0.26;74.36
62978;BME280;49073;42.352;23.808;2023-01-31T00:06:22;94172.13;;;0.30;74.58
62978;BME280;49073;42.352;23.808;2023-01-31T00:09:23;94182.13;;;0.28;74.76
62978;BME280;49073;42.352;23.808;2023-01-31T00:12:23;94173.34;;;0.24;74.84
62978;BME280;49073;42.352;23.808;2023-01-31T00:15:25;94172.84;;;0.22;75.21
62978;BME280;49073;42.352;23.808;2023-01-31T00:18:26;94178.09;;;0.22;75.98
62978;BME280;49073;42.352;23.808;2023-01-31T00:21:29;94171.13;;;0.17;76.60
62978;BME280;49073;42.352;23.808;2023-01-31T00:24:29;94178.81;;;0.13;77.82
62978;BME280;49073;42.352;23.808;2023-01-31T00:27:30;94168.94;;;0.10;79.18
62978;BME280;49073;42.352;23.808;2023-01-31T00:30:31;94170.28;;;0.08;80.46
62978;BME280;49073;42.352;23.808;2023-01-31T00:33:32;94160.94;;;-0.07;82.10
62978;BME280;49073;42.352;23.808;2023-01-31T00:36:34;94161.53;;;-0.10;83.28
62978;BME280;49073;42.352;23.808;2023-01-31T00:39:35;94165.53;;;-0.13;83.72
62978;BME280;49073;42.352;23.808;2023-01-31T00:42:35;94156.31;;;-0.10;84.03
62978;BME280;49073;42.352;23.808;2023-01-31T00:45:36;94147.50;;;-0.15;84.03
62978;BME280;49073;42.352;23.808;2023-01-31T00:48:36;94142.72;;;-0.12;84.07
62978;BME280;49073;42.352;23.808;2023-01-31T00:51:37;94140.59;;;-0.10;84.12
62978;BME280;49073;42.352;23.808;2023-01-31T00:54:37;94141.84;;;-0.08;83.48
62978;BME280;49073;42.352;23.808;2023-01-31T00:57:38;94143.41;;;-0.07;83.38
62978;BME280;49073;42.352;23.808;2023-01-31T01:00:39;94144.16;;;-0.06;83.09
62978;BME280;49073;42.352;23.808;2023-01-31T01:03:41;94130.13;;;-0.10;82.93
62978;BME280;49073;42.352;23.808;2023-01-31T01:06:42;94122.13;;;-0.05;82.80
62978;BME280;49073;42.352;23.808;2023-01-31T01:09:42;94124.69;;;0.09;82.02
62978;BME280;49073;42.352;23.808;2023-01-31T01:12:44;94117.75;;;0.04;81.61
62978;BME280;49073;42.352;23.808;2023-01-31T01:15:46;94115.59;;;0.06;81.48
62978;BME280;49073;42.352;23.808;2023-01-31T01:18:47;94108.81;;;0.05;81.39
62978;BME280;49073;42.352;23.808;2023-01-31T01:21:49;94107.75;;;0.06;81.31
62978;BME280;49073;42.352;23.808;2023-01-31T01:24:49;94106.34;;;0.09;81.03
62978;BME280;49073;42.352;23.808;2023-01-31T01:27:50;94105.34;;;0.19;79.92
62978;BME280;49073;42.352;23.808;2023-01-31T01:30:50;94096.88;;;0.22;79.44
62978;BME280;49073;42.352;23.808;2023-01-31T01:33:51;94092.25;;;0.27;78.86
62978;BME280;49073;42.352;23.808;2023-01-31T01:36:51;94087.50;;;0.30;78.42
62978;BME280;49073;42.352;23.808;2023-01-31T01:39:52;94083.22;;;0.34;78.20
62978;BME280;49073;42.352;23.808;2023-01-31T01:42:52;94074.28;;;0.35;78.56
62978;BME280;49073;42.352;23.808;2023-01-31T01:45:53;94081.53;;;0.38;78.12
62978;BME280;49073;42.352;23.808;2023-01-31T01:49:03;94075.97;;;0.39;77.18
62978;BME280;49073;42.352;23.808;2023-01-31T01:52:07;94073.81;;;0.41;77.18
62978;BME280;49073;42.352;23.808;2023-01-31T01:55:18;94079.72;;;0.47;75.78
62978;BME280;49073;42.352;23.808;2023-01-31T01:58:30;94089.13;;;0.48;75.83
62978;BME280;49073;42.352;23.808;2023-01-31T02:01:35;94106.25;;;0.54;75.24
62978;BME280;49073;42.352;23.808;2023-01-31T02:04:37;94095.34;;;0.61;74.44
62978;BME280;49073;42.352;23.808;2023-01-31T02:07:40;94101.53;;;0.65;74.08
62978;BME280;49073;42.352;23.808;2023-01-31T02:11:03;94096.44;;;0.69;73.53
62978;BME280;49073;42.352;23.808;2023-01-31T02:14:08;94093.19;;;0.72;72.95
62978;BME280;49073;42.352;23.808;2023-01-31T02:17:14;94100.78;;;0.74;70.20
62978;BME280;49073;42.352;23.808;2023-01-31T02:30:11;94104.63;;;0.76;66.02
62978;BME280;49073;42.352;23.808;2023-01-31T02:46:15;94104.75;;;0.71;52.14
62978;BME280;49073;42.352;23.808;2023-01-31T02:49:22;94124.50;;;0.68;50.78
62978;BME280;49073;42.352;23.808;2023-01-31T02:52:52;94128.81;;;0.64;51.70
62978;BME280;49073;42.352;23.808;2023-01-31T02:56:02;94123.72;;;0.59;50.16
62978;BME280;49073;42.352;23.808;2023-01-31T02:59:21;94138.66;;;0.58;52.21
62978;BME280;49073;42.352;23.808;2023-01-31T03:02:26;94132.63;;;0.58;52.05
62978;BME280;49073;42.352;23.808;2023-01-31T03:05:27;94130.13;;;0.53;53.85
62978;BME280;49073;42.352;23.808;2023-01-31T03:08:29;94145.25;;;0.47;54.50
62978;BME280;49073;42.352;23.808;2023-01-31T03:18:11;94155.06;;;0.41;55.05
62978;BME280;49073;42.352;23.808;2023-01-31T03:21:23;94168.31;;;0.36;55.38
62978;BME280;49073;42.352;23.808;2023-01-31T03:24:26;94162.72;;;0.29;55.66
62978;BME280;49073;42.352;23.808;2023-01-31T03:27:29;94159.63;;;0.27;54.96
62978;BME280;49073;42.352;23.808;2023-01-31T03:33:41;94172.25;;;0.25;55.32
62978;BME280;49073;42.352;23.808;2023-01-31T03:36:56;94167.31;;;0.23;53.90
62978;BME280;49073;42.352;23.808;2023-01-31T03:40:04;94162.06;;;0.23;53.74
62978;BME280;49073;42.352;23.808;2023-01-31T03:46:50;94175.75;;;0.20;53.40
62978;BME280;49073;42.352;23.808;2023-01-31T03:49:54;94183.47;;;0.17;54.00
62978;BME280;49073;42.352;23.808;2023-01-31T03:53:09;94196.56;;;0.17;53.79
62978;BME280;49073;42.352;23.808;2023-01-31T03:56:20;94187.56;;;0.09;54.08
62978;BME280;49073;42.352;23.808;2023-01-31T03:59:28;94197.63;;;0.16;54.31
62978;BME280;49073;42.352;23.808;2023-01-31T04:02:35;94203.75;;;0.11;54.60
62978;BME280;49073;42.352;23.808;2023-01-31T04:05:36;94218.53;;;0.07;55.93
62978;BME280;49073;42.352;23.808;2023-01-31T04:08:37;94227.16;;;0.07;56.18
62978;BME280;49073;42.352;23.808;2023-01-31T04:11:40;94230.84;;;0.06;57.37
62978;BME280;49073;42.352;23.808;2023-01-31T04:14:41;94242.41;;;0.05;58.55
62978;BME280;49073;42.352;23.808;2023-01-31T04:17:42;94247.16;;;0.03;59.25
62978;BME280;49073;42.352;23.808;2023-01-31T04:20:43;94259.28;;;-0.01;60.35
62978;BME280;49073;42.352;23.808;2023-01-31T04:23:43;94260.34;;;-0.02;61.18
62978;BME280;49073;42.352;23.808;2023-01-31T04:26:43;94264.94;;;-0.08;61.33
62978;BME280;49073;42.352;23.808;2023-01-31T04:29:44;94259.88;;;-0.04;62.14
62978;BME280;49073;42.352;23.808;2023-01-31T04:32:45;94258.31;;;-0.05;62.63
62978;BME280;49073;42.352;23.808;2023-01-31T04:35:46;94258.91;;;-0.08;63.60
62978;BME280;49073;42.352;23.808;2023-01-31T04:38:47;94251.84;;;-0.08;64.48
62978;BME280;49073;42.352;23.808;2023-01-31T04:41:47;94256.88;;;-0.11;65.83
62978;BME280;49073;42.352;23.808;2023-01-31T04:44:48;94257.78;;;-0.16;67.48
62978;BME280;49073;42.352;23.808;2023-01-31T04:47:48;94256.88;;;-0.11;68.25
62978;BME280;49073;42.352;23.808;2023-01-31T04:50:49;94260.31;;;-0.11;69.17
62978;BME280;49073;42.352;23.808;2023-01-31T04:53:49;94244.09;;;-0.13;69.32
62978;BME280;49073;42.352;23.808;2023-01-31T04:56:50;94239.63;;;-0.12;69.17
62978;BME280;49073;42.352;23.808;2023-01-31T04:59:51;94237.31;;;-0.14;69.25
62978;BME280;49073;42.352;23.808;2023-01-31T05:02:53;94232.56;;;-0.12;68.87
62978;BME280;49073;42.352;23.808;2023-01-31T05:05:53;94246.84;;;-0.18;68.68
62978;BME280;49073;42.352;23.808;2023-01-31T05:08:55;94241.59;;;-0.18;69.07
62978;BME280;49073;42.352;23.808;2023-01-31T05:11:55;94254.97;;;-0.20;68.63
62978;BME280;49073;42.352;23.808;2023-01-31T05:14:56;94250.81;;;-0.21;68.98
62978;BME280;49073;42.352;23.808;2023-01-31T05:17:56;94249.25;;;-0.22;69.02
62978;BME280;49073;42.352;23.808;2023-01-31T05:21:02;94247.81;;;-0.28;69.81
62978;BME280;49073;42.352;23.808;2023-01-31T05:24:03;94249.38;;;-0.27;69.79
62978;BME280;49073;42.352;23.808;2023-01-31T05:27:04;94239.22;;;-0.28;69.99
62978;BME280;49073;42.352;23.808;2023-01-31T05:30:05;94242.00;;;-0.25;69.70
62978;BME280;49073;42.352;23.808;2023-01-31T05:33:05;94249.84;;;-0.25;70.09
62978;BME280;49073;42.352;23.808;2023-01-31T05:36:06;94243.84;;;-0.25;70.59
62978;BME280;49073;42.352;23.808;2023-01-31T05:39:07;94239.69;;;-0.26;70.73
62978;BME280;49073;42.352;23.808;2023-01-31T05:42:08;94255.19;;;-0.30;71.16
62978;BME280;49073;42.352;23.808;2023-01-31T05:45:09;94262.25;;;-0.31;71.14
62978;BME280;49073;42.352;23.808;2023-01-31T05:48:10;94244.72;;;-0.30;71.78
62978;BME280;49073;42.352;23.808;2023-01-31T05:51:10;94261.50;;;-0.31;72.02
62978;BME280;49073;42.352;23.808;2023-01-31T05:54:12;94263.16;;;-0.35;72.53
62978;BME280;49073;42.352;23.808;2023-01-31T05:57:13;94274.69;;;-0.36;72.97
62978;BME280;49073;42.352;23.808;2023-01-31T06:00:16;94280.22;;;-0.38;73.30
62978;BME280;49073;42.352;23.808;2023-01-31T06:03:16;94278.88;;;-0.35;73.45
62978;BME280;49073;42.352;23.808;2023-01-31T06:06:17;94300.28;;;-0.33;73.68
62978;BME280;49073;42.352;23.808;2023-01-31T06:09:19;94299.81;;;-0.35;73.73
62978;BME280;49073;42.352;23.808;2023-01-31T06:12:20;94298.91;;;-0.31;73.84
62978;BME280;49073;42.352;23.808;2023-01-31T06:15:20;94311.94;;;-0.25;73.96
62978;BME280;49073;42.352;23.808;2023-01-31T06:18:21;94295.91;;;-0.24;73.93
62978;BME280;49073;42.352;23.808;2023-01-31T06:21:22;94310.16;;;-0.16;73.86
62978;BME280;49073;42.352;23.808;2023-01-31T06:24:23;94291.84;;;-0.16;73.32
62978;BME280;49073;42.352;23.808;2023-01-31T06:27:23;94292.59;;;-0.16;73.28
62978;BME280;49073;42.352;23.808;2023-01-31T06:30:24;94300.44;;;-0.16;74.09
62978;BME280;49073;42.352;23.808;2023-01-31T06:33:25;94300.56;;;-0.21;74.10
62978;BME280;49073;42.352;23.808;2023-01-31T06:36:25;94280.09;;;-0.19;73.53
62978;BME280;49073;42.352;23.808;2023-01-31T06:39:26;94283.50;;;-0.18;74.01
62978;BME280;49073;42.352;23.808;2023-01-31T06:42:26;94284.56;;;-0.19;74.26
62978;BME280;49073;42.352;23.808;2023-01-31T06:45:27;94288.16;;;-0.15;73.95
62978;BME280;49073;42.352;23.808;2023-01-31T06:48:27;94282.97;;;-0.06;73.00
62978;BME280;49073;42.352;23.808;2023-01-31T06:51:28;94294.00;;;0.05;73.23
62978;BME280;49073;42.352;23.808;2023-01-31T06:54:28;94295.09;;;0.04;73.07
62978;BME280;49073;42.352;23.808;2023-01-31T06:57:28;94298.84;;;0.11;72.97
62978;BME280;49073;42.352;23.808;2023-01-31T07:00:29;94307.09;;;0.19;71.77
62978;BME280;49073;42.352;23.808;2023-01-31T07:03:30;94302.22;;;0.26;71.86
62978;BME280;49073;42.352;23.808;2023-01-31T07:06:30;94309.66;;;0.33;70.91
62978;BME280;49073;42.352;23.808;2023-01-31T07:09:31;94311.38;;;0.37;69.39
62978;BME280;49073;42.352;23.808;2023-01-31T07:12:31;94306.94;;;0.38;69.11
62978;BME280;49073;42.352;23.808;2023-01-31T07:15:32;94312.06;;;0.43;69.33
62978;BME280;49073;42.352;23.808;2023-01-31T07:18:32;94309.44;;;0.43;69.54
62978;BME280;49073;42.352;23.808;2023-01-31T07:21:33;94315.44;;;0.43;69.41
62978;BME280;49073;42.352;23.808;2023-01-31T07:24:35;94318.84;;;0.44;68.47
62978;BME280;49073;42.352;23.808;2023-01-31T07:27:35;94306.50;;;0.45;69.51
62978;BME280;49073;42.352;23.808;2023-01-31T07:30:36;94307.75;;;0.47;68.47
62978;BME280;49073;42.352;23.808;2023-01-31T07:33:37;94301.34;;;0.53;68.60
62978;BME280;49073;42.352;23.808;2023-01-31T07:36:37;94303.53;;;0.60;68.58
62978;BME280;49073;42.352;23.808;2023-01-31T07:39:38;94300.94;;;0.60;68.91
62978;BME280;49073;42.352;23.808;2023-01-31T07:42:38;94308.06;;;0.68;68.69
62978;BME280;49073;42.352;23.808;2023-01-31T07:45:39;94292.81;;;0.70;68.49
62978;BME280;49073;42.352;23.808;2023-01-31T07:48:41;94295.47;;;0.79;67.79
62978;BME280;49073;42.352;23.808;2023-01-31T07:51:42;94299.09;;;0.92;68.21
62978;BME280;49073;42.352;23.808;2023-01-31T07:54:42;94299.78;;;1.07;66.27
62978;BME280;49073;42.352;23.808;2023-01-31T07:57:43;94294.25;;;1.17;66.64
62978;BME280;49073;42.352;23.808;2023-01-31T08:00:43;94313.88;;;1.51;65.65
62978;BME280;49073;42.352;23.808;2023-01-31T08:04:04;94308.03;;;1.72;64.24
62978;BME280;49073;42.352;23.808;2023-01-31T08:07:04;94312.09;;;1.78;63.16
62978;BME280;49073;42.352;23.808;2023-01-31T08:10:06;94312.41;;;1.77;62.64
62978;BME280;49073;42.352;23.808;2023-01-31T08:13:08;94304.69;;;1.80;63.80
62978;BME280;49073;42.352;23.808;2023-01-31T08:16:11;94314.28;;;1.94;64.89
62978;BME280;49073;42.352;23.808;2023-01-31T08:19:13;94321.06;;;1.86;63.54
62978;BME280;49073;42.352;23.808;2023-01-31T08:22:13;94317.69;;;1.85;63.86
62978;BME280;49073;42.352;23.808;2023-01-31T08:25:13;94325.28;;;2.04;63.58
62978;BME280;49073;42.352;23.808;2023-01-31T08:28:15;94318.03;;;2.28;62.95
62978;BME280;49073;42.352;23.808;2023-01-31T08:31:18;94320.53;;;2.24;60.40
62978;BME280;49073;42.352;23.808;2023-01-31T08:34:19;94301.78;;;2.26;61.04
62978;BME280;49073;42.352;23.808;2023-01-31T08:37:20;94309.06;;;2.38;61.14
62978;BME280;49073;42.352;23.808;2023-01-31T08:40:20;94312.31;;;2.61;61.42
62978;BME280;49073;42.352;23.808;2023-01-31T08:43:21;94307.06;;;2.35;60.77
62978;BME280;49073;42.352;23.808;2023-01-31T08:46:26;94314.94;;;2.52;62.22
62978;BME280;49073;42.352;23.808;2023-01-31T08:49:26;94311.38;;;2.48;61.88
62978;BME280;49073;42.352;23.808;2023-01-31T08:52:27;94311.06;;;2.58;62.34
62978;BME280;49073;42.352;23.808;2023-01-31T08:55:29;94312.91;;;2.75;62.48
62978;BME280;49073;42.352;23.808;2023-01-31T08:58:31;94308.28;;;2.72;60.16
62978;BME280;49073;42.352;23.808;2023-01-31T09:01:33;94316.78;;;2.78;61.59
62978;BME280;49073;42.352;23.808;2023-01-31T09:04:34;94315.72;;;2.70;61.99
62978;BME280;49073;42.352;23.808;2023-01-31T09:07:36;94317.09;;;2.76;63.09
62978;BME280;49073;42.352;23.808;2023-01-31T09:10:37;94322.34;;;2.76;63.09
62978;BME280;49073;42.352;23.808;2023-01-31T09:13:37;94315.72;;;2.61;63.88
62978;BME280;49073;42.352;23.808;2023-01-31T09:16:37;94323.28;;;2.89;63.17
62978;BME280;49073;42.352;23.808;2023-01-31T09:19:38;94317.69;;;2.91;63.00
62978;BME280;49073;42.352;23.808;2023-01-31T09:22:38;94319.97;;;3.10;63.32
62978;BME280;49073;42.352;23.808;2023-01-31T09:25:39;94316.50;;;3.36;62.48
62978;BME280;49073;42.352;23.808;2023-01-31T09:28:40;94321.50;;;3.29;62.49
62978;BME280;49073;42.352;23.808;2023-01-31T09:31:44;94329.31;;;2.64;62.56
62978;BME280;49073;42.352;23.808;2023-01-31T09:34:46;94327.63;;;2.24;64.23
62978;BME280;49073;42.352;23.808;2023-01-31T09:37:48;94323.75;;;2.12;64.41
62978;BME280;49073;42.352;23.808;2023-01-31T09:40:48;94314.28;;;1.94;65.44
62978;BME280;49073;42.352;23.808;2023-01-31T09:44:30;94319.88;;;2.01;66.45
62978;BME280;49073;42.352;23.808;2023-01-31T09:47:41;94309.84;;;2.12;67.19
62978;BME280;49073;42.352;23.808;2023-01-31T09:50:50;94311.22;;;2.09;66.93
62978;BME280;49073;42.352;23.808;2023-01-31T09:53:55;94307.97;;;2.03;67.20
62978;BME280;49073;42.352;23.808;2023-01-31T09:58:06;94302.09;;;2.15;67.82
62978;BME280;49073;42.352;23.808;2023-01-31T10:07:35;94293.44;;;2.06;66.35
62978;BME280;49073;42.352;23.808;2023-01-31T10:11:05;94298.72;;;2.15;66.43
62978;BME280;49073;42.352;23.808;2023-01-31T10:14:52;94284.66;;;2.37;66.62
62978;BME280;49073;42.352;23.808;2023-01-31T10:17:56;94285.56;;;2.68;64.94
62978;BME280;49073;42.352;23.808;2023-01-31T10:21:24;94286.34;;;3.55;64.51
62978;BME280;49073;42.352;23.808;2023-01-31T10:24:31;94285.53;;;3.33;62.27
62978;BME280;49073;42.352;23.808;2023-01-31T10:27:43;94288.66;;;3.26;63.63
62978;BME280;49073;42.352;23.808;2023-01-31T10:34:20;94291.28;;;2.61;60.28
62978;BME280;49073;42.352;23.808;2023-01-31T10:37:32;94282.00;;;2.55;61.65
62978;BME280;49073;42.352;23.808;2023-01-31T10:40:36;94282.63;;;2.52;62.40
62978;BME280;49073;42.352;23.808;2023-01-31T10:43:50;94279.22;;;2.51;61.80
62978;BME280;49073;42.352;23.808;2023-01-31T10:46:57;94283.41;;;2.43;62.41
62978;BME280;49073;42.352;23.808;2023-01-31T10:49:58;94275.03;;;2.50;62.75
62978;BME280;49073;42.352;23.808;2023-01-31T10:56:33;94270.09;;;2.49;61.89
62978;BME280;49073;42.352;23.808;2023-01-31T10:59:41;94267.59;;;2.61;61.44
62978;BME280;49073;42.352;23.808;2023-01-31T11:02:43;94266.22;;;2.46;61.06
62978;BME280;49073;42.352;23.808;2023-01-31T11:05:55;94257.44;;;2.24;62.31
62978;BME280;49073;42.352;23.808;2023-01-31T11:08:58;94270.88;;;2.14;62.34
62978;BME280;49073;42.352;23.808;2023-01-31T11:12:01;94262.22;;;2.13;62.33
62978;BME280;49073;42.352;23.808;2023-01-31T11:15:17;94265.78;;;2.09;62.73
62978;BME280;49073;42.352;23.808;2023-01-31T11:18:47;94272.25;;;2.11;63.62
62978;BME280;49073;42.352;23.808;2023-01-31T11:21:51;94267.94;;;2.15;64.24
62978;BME280;49073;42.352;23.808;2023-01-31T11:24:54;94258.34;;;2.02;62.69
62978;BME280;49073;42.352;23.808;2023-01-31T11:27:59;94270.56;;;1.98;63.79
62978;BME280;49073;42.352;23.808;2023-01-31T11:31:03;94269.94;;;2.01;64.24
62978;BME280;49073;42.352;23.808;2023-01-31T11:34:18;94267.13;;;1.97;64.58
62978;BME280;49073;42.352;23.808;2023-01-31T11:37:19;94264.69;;;2.01;64.50
62978;BME280;49073;42.352;23.808;2023-01-31T11:40:35;94256.50;;;1.94;63.80
62978;BME280;49073;42.352;23.808;2023-01-31T11:43:36;94261.28;;;2.00;64.00
62978;BME280;49073;42.352;23.808;2023-01-31T11:46:44;94269.16;;;2.09;64.54
62978;BME280;49073;42.352;23.808;2023-01-31T11:49:47;94269.34;;;2.13;63.50
62978;BME280;49073;42.352;23.808;2023-01-31T11:52:57;94255.41;;;2.12;62.06
62978;BME280;49073;42.352;23.808;2023-01-31T11:56:10;94269.34;;;2.13;62.14
62978;BME280;49073;42.352;23.808;2023-01-31T11:59:16;94268.88;;;2.11;63.77
62978;BME280;49073;42.352;23.808;2023-01-31T12:02:36;94264.53;;;2.06;64.48
62978;BME280;49073;42.352;23.808;2023-01-31T12:05:43;94263.44;;;2.07;64.58
62978;BME280;49073;42.352;23.808;2023-01-31T12:08:44;94271.16;;;2.03;65.04
62978;BME280;49073;42.352;23.808;2023-01-31T12:12:00;94269.94;;;2.18;65.50
62978;BME280;49073;42.352;23.808;2023-01-31T12:15:13;94266.53;;;2.27;66.05
62978;BME280;49073;42.352;23.808;2023-01-31T12:18:19;94268.09;;;2.28;66.03
62978;BME280;49073;42.352;23.808;2023-01-31T12:21:43;94266.25;;;2.28;65.66
62978;BME280;49073;42.352;23.808;2023-01-31T12:31:41;94278.75;;;2.05;66.71
62978;BME280;49073;42.352;23.808;2023-01-31T12:41:40;94286.94;;;2.03;68.92
62978;BME280;49073;42.352;23.808;2023-01-31T12:44:47;94290.47;;;1.90;69.19
62978;BME280;49073;42.352;23.808;2023-01-31T12:54:29;94294.78;;;1.86;71.15
62978;BME280;49073;42.352;23.808;2023-01-31T12:57:51;94291.25;;;1.82;71.86
62978;BME280;49073;42.352;23.808;2023-01-31T13:05:21;94305.09;;;1.65;74.62
62978;BME280;49073;42.352;23.808;2023-01-31T13:11:05;94288.09;;;1.62;75.39
62978;BME280;49073;42.352;23.808;2023-01-31T13:14:20;94298.16;;;1.60;75.22
62978;BME280;49073;42.352;23.808;2023-01-31T13:17:24;94304.47;;;1.59;74.45
62978;BME280;49073;42.352;23.808;2023-01-31T13:20:33;94307.72;;;1.65;72.67
62978;BME280;49073;42.352;23.808;2023-01-31T13:23:40;94313.78;;;1.74;73.03
62978;BME280;49073;42.352;23.808;2023-01-31T13:26:45;94313.31;;;1.72;72.77
62978;BME280;49073;42.352;23.808;2023-01-31T13:29:52;94318.25;;;1.73;72.69
62978;BME280;49073;42.352;23.808;2023-01-31T13:32:56;94315.13;;;1.63;72.29
62978;BME280;49073;42.352;23.808;2023-01-31T13:36:22;94324.56;;;1.55;71.74
62978;BME280;49073;42.352;23.808;2023-01-31T13:39:47;94322.06;;;1.50;72.48
62978;BME280;49073;42.352;23.808;2023-01-31T13:42:49;94323.72;;;1.45;72.05
62978;BME280;49073;42.352;23.808;2023-01-31T13:45:59;94329.09;;;1.40;72.16
62978;BME280;49073;42.352;23.808;2023-01-31T13:49:08;94323.69;;;1.37;72.82
62978;BME280;49073;42.352;23.808;2023-01-31T13:52:20;94322.31;;;1.39;72.54
62978;BME280;49073;42.352;23.808;2023-01-31T13:55:29;94322.16;;;1.44;72.55
62978;BME280;49073;42.352;23.808;2023-01-31T13:58:31;94318.66;;;1.49;71.97
62978;BME280;49073;42.352;23.808;2023-01-31T14:01:35;94310.59;;;1.45;72.25
62978;BME280;49073;42.352;23.808;2023-01-31T14:04:42;94309.03;;;1.44;73.18
62978;BME280;49073;42.352;23.808;2023-01-31T14:14:37;94317.16;;;1.57;72.46
62978;BME280;49073;42.352;23.808;2023-01-31T14:20:39;94328.06;;;1.50;71.20
62978;BME280;49073;42.352;23.808;2023-01-31T14:23:44;94322.69;;;1.55;71.53
62978;BME280;49073;42.352;23.808;2023-01-31T14:29:55;94337.81;;;1.50;71.49
62978;BME280;49073;42.352;23.808;2023-01-31T14:36:38;94335.28;;;1.36;72.20
62978;BME280;49073;42.352;23.808;2023-01-31T14:50:33;94347.06;;;1.15;73.41
62978;BME280;49073;42.352;23.808;2023-01-31T14:57:20;94356.44;;;1.08;74.36
62978;BME280;49073;42.352;23.808;2023-01-31T15:00:28;94360.09;;;0.98;74.72
62978;BME280;49073;42.352;23.808;2023-01-31T15:03:33;94365.63;;;0.96;75.17
62978;BME280;49073;42.352;23.808;2023-01-31T15:06:37;94369.50;;;0.99;74.90
62978;BME280;49073;42.352;23.808;2023-01-31T15:09:42;94367.00;;;0.94;74.53
62978;BME280;49073;42.352;23.808;2023-01-31T15:12:55;94371.66;;;0.97;74.68
62978;BME280;49073;42.352;23.808;2023-01-31T15:15:57;94379.06;;;0.95;74.51
62978;BME280;49073;42.352;23.808;2023-01-31T15:19:19;94388.00;;;0.94;74.22
62978;BME280;49073;42.352;23.808;2023-01-31T15:22:24;94392.34;;;0.98;74.47
62978;BME280;49073;42.352;23.808;2023-01-31T15:25:32;94387.09;;;0.98;74.10
62978;BME280;49073;42.352;23.808;2023-01-31T15:28:37;94390.38;;;1.04;73.79
62978;BME280;49073;42.352;23.808;2023-01-31T15:31:42;94386.84;;;1.09;73.71
62978;BME280;49073;42.352;23.808;2023-01-31T15:34:53;94389.78;;;1.07;74.25
62978;BME280;49073;42.352;23.808;2023-01-31T15:37:58;94397.19;;;1.05;73.64
62978;BME280;49073;42.352;23.808;2023-01-31T15:44:17;94405.88;;;1.14;73.02
62978;BME280;49073;42.352;23.808;2023-01-31T15:47:22;94397.66;;;1.07;72.46
62978;BME280;49073;42.352;23.808;2023-01-31T15:50:23;94406.59;;;1.06;73.28
62978;BME280;49073;42.352;23.808;2023-01-31T15:53:28;94403.38;;;1.09;72.86
62978;BME280;49073;42.352;23.808;2023-01-31T15:56:29;94410.28;;;1.05;72.53
62978;BME280;49073;42.352;23.808;2023-01-31T15:59:31;94423.22;;;1.01;72.49
62978;BME280;49073;42.352;23.808;2023-01-31T16:02:33;94427.13;;;1.04;72.43
62978;BME280;49073;42.352;23.808;2023-01-31T16:05:36;94423.09;;;1.07;72.83
62978;BME280;49073;42.352;23.808;2023-01-31T16:08:38;94441.47;;;1.07;72.83
62978;BME280;49073;42.352;23.808;2023-01-31T16:11:39;94442.75;;;1.09;72.67
62978;BME280;49073;42.352;23.808;2023-01-31T16:14:44;94430.38;;;1.10;73.11
62978;BME280;49073;42.352;23.808;2023-01-31T16:17:47;94437.63;;;1.04;73.46
62978;BME280;49073;42.352;23.808;2023-01-31T16:20:53;94439.28;;;1.00;73.99
62978;BME280;49073;42.352;23.808;2023-01-31T16:27:13;94438.59;;;0.94;74.42
62978;BME280;49073;42.352;23.808;2023-01-31T16:30:16;94445.41;;;0.95;74.58
62978;BME280;49073;42.352;23.808;2023-01-31T16:33:21;94456.59;;;0.87;74.66
62978;BME280;49073;42.352;23.808;2023-01-31T16:36:50;94458.16;;;0.88;75.34
62978;BME280;49073;42.352;23.808;2023-01-31T16:39:48;94466.50;;;0.90;74.91
62978;BME280;49073;42.352;23.808;2023-01-31T16:43:22;94465.25;;;0.87;74.83
62978;BME280;49073;42.352;23.808;2023-01-31T16:46:37;94468.19;;;0.86;75.09
62978;BME280;49073;42.352;23.808;2023-01-31T16:49:38;94482.56;;;0.89;74.78
62978;BME280;49073;42.352;23.808;2023-01-31T16:52:39;94488.69;;;0.84;74.69
62978;BME280;49073;42.352;23.808;2023-01-31T16:55:40;94486.66;;;0.81;75.13
62978;BME280;49073;42.352;23.808;2023-01-31T16:58:53;94488.38;;;0.85;75.29
62978;BME280;49073;42.352;23.808;2023-01-31T17:02:01;94493.13;;;0.83;74.93
62978;BME280;49073;42.352;23.808;2023-01-31T17:05:22;94494.78;;;0.79;75.10
62978;BME280;49073;42.352;23.808;2023-01-31T17:08:24;94497.63;;;0.83;74.85
62978;BME280;49073;42.352;23.808;2023-01-31T17:11:24;94499.28;;;0.79;74.67
62978;BME280;49073;42.352;23.808;2023-01-31T17:14:25;94503.47;;;0.80;75.08
62978;BME280;49073;42.352;23.808;2023-01-31T17:17:31;94501.00;;;0.83;74.60
62978;BME280;49073;42.352;23.808;2023-01-31T17:20:33;94506.84;;;0.80;75.14
62978;BME280;49073;42.352;23.808;2023-01-31T17:23:33;94510.72;;;0.83;74.70
62978;BME280;49073;42.352;23.808;2023-01-31T17:26:34;94504.53;;;0.79;74.66
62978;BME280;49073;42.352;23.808;2023-01-31T17:29:35;94515.78;;;0.79;75.07
62978;BME280;49073;42.352;23.808;2023-01-31T17:32:35;94509.94;;;0.82;75.13
62978;BME280;49073;42.352;23.808;2023-01-31T17:35:40;94508.50;;;0.76;75.31
62978;BME280;49073;42.352;23.808;2023-01-31T17:38:42;94519.19;;;0.80;75.23
62978;BME280;49073;42.352;23.808;2023-01-31T17:41:43;94518.50;;;0.74;75.19
62978;BME280;49073;42.352;23.808;2023-01-31T17:44:46;94522.41;;;0.77;75.16
62978;BME280;49073;42.352;23.808;2023-01-31T17:47:47;94523.59;;;0.70;75.35
62978;BME280;49073;42.352;23.808;2023-01-31T17:50:47;94525.31;;;0.75;75.05
62978;BME280;49073;42.352;23.808;2023-01-31T17:53:48;94530.38;;;0.71;75.42
62978;BME280;49073;42.352;23.808;2023-01-31T17:56:49;94526.31;;;0.65;75.89
62978;BME280;49073;42.352;23.808;2023-01-31T17:59:50;94531.72;;;0.69;75.54
62978;BME280;49073;42.352;23.808;2023-01-31T18:02:51;94527.06;;;0.66;75.55
62978;BME280;49073;42.352;23.808;2023-01-31T18:05:52;94540.28;;;0.61;75.54
62978;BME280;49073;42.352;23.808;2023-01-31T18:08:53;94525.53;;;0.65;75.96